Time;durP1;ratioP1;P1;durP2;ratioP2;P2;SDS_P1;SDS_P2;PMS_P1;PMS_P2;Temp;Humidity;BMP_temperature;BMP_pressure;BME280_temperature;BME280_humidity;BME280_pressure;Samples;Min_cycle;Max_cycle;Signal;HPM_P1;HPM_P2
2021/04/27 06:17:35;;;;;;;2.75;2.17;;;;;;;15.40;72.83;99687.92;1702298;82;21219;-78
2021/04/27 06:20:10;;;;;;;3.22;2.55;;;;;;;15.55;72.46;99690.45;1838020;77;28475;-76
2021/04/27 06:22:55;;;;;;;3.67;3.10;;;;;;;15.56;72.30;99691.27;1805577;77;21054;-76
2021/04/27 06:25:23;;;;;;;2.70;1.92;;;;;;;15.56;72.21;99690.73;1800760;78;22141;-78
2021/04/27 06:27:51;;;;;;;3.98;2.58;;;;;;;15.56;72.15;99689.40;1797288;79;21193;-80
2021/04/27 06:30:22;;;;;;;2.85;2.40;;;;;;;15.61;72.08;99693.64;1799631;79;21178;-82
2021/04/27 06:32:52;;;;;;;2.90;2.17;;;;;;;15.70;71.77;99689.77;1782751;79;21153;-80
2021/04/27 06:35:20;;;;;;;2.77;2.52;;;;;;;15.69;71.80;99697.47;1777802;79;21130;-71
2021/04/27 06:37:49;;;;;;;2.37;2.10;;;;;;;15.67;71.80;99694.69;1785645;79;21403;-71
2021/04/27 06:40:16;;;;;;;2.50;2.15;;;;;;;15.63;71.80;99692.11;1777047;79;21007;-70
2021/04/27 06:42:43;;;;;;;3.90;2.40;;;;;;;15.62;71.76;99694.47;1785721;79;21154;-73
2021/04/27 06:45:13;;;;;;;3.85;2.83;;;;;;;15.64;71.72;99688.39;1775587;79;21181;-72
2021/04/27 06:47:40;;;;;;;3.33;2.37;;;;;;;15.72;71.54;99696.23;1788430;79;21143;-75
2021/04/27 06:50:14;;;;;;;3.08;2.22;;;;;;;15.69;71.57;99693.98;1784767;79;21358;-74
2021/04/27 06:52:41;;;;;;;3.35;2.47;;;;;;;15.67;71.63;99690.67;1816393;78;21134;-75
2021/04/27 06:55:10;;;;;;;2.70;2.40;;;;;;;15.63;71.72;99696.95;1809974;78;21526;-72
2021/04/27 06:57:38;;;;;;;3.62;2.55;;;;;;;15.63;71.85;99696.13;1800344;78;21143;-72
2021/04/27 07:00:08;;;;;;;17.10;9.63;;;;;;;15.71;71.69;99690.58;1804853;77;21159;-71
2021/04/27 07:02:35;;;;;;;11.03;7.03;;;;;;;15.75;71.92;99696.39;1788023;78;22261;-69
2021/04/27 07:05:05;;;;;;;14.53;9.03;;;;;;;15.77;71.50;99696.48;1801257;78;21665;-71
2021/04/27 07:07:32;;;;;;;15.48;9.20;;;;;;;15.80;71.28;99694.75;1805139;78;21146;-70
2021/04/27 07:10:00;;;;;;;19.80;8.78;;;;;;;15.84;71.14;99697.33;1788920;79;21129;-72
2021/04/27 07:12:28;;;;;;;18.30;9.10;;;;;;;15.85;70.94;99691.45;1795608;79;21161;-70
2021/04/27 07:14:55;;;;;;;17.02;8.70;;;;;;;15.90;70.66;99695.17;1798733;78;22163;-71
2021/04/27 07:17:23;;;;;;;15.58;9.85;;;;;;;16.01;70.16;99691.57;1801830;78;21235;-71
2021/04/27 07:19:51;;;;;;;15.83;9.25;;;;;;;16.00;69.85;99688.08;1790817;78;21601;-70
2021/04/27 07:22:18;;;;;;;15.13;8.63;;;;;;;15.98;69.60;99682.09;1803044;78;21129;-71
2021/04/27 07:24:46;;;;;;;14.60;8.90;;;;;;;15.98;69.39;99683.96;1796656;78;21162;-71
2021/04/27 07:27:13;;;;;;;18.02;8.30;;;;;;;15.97;69.15;99681.77;1788661;78;21647;-70
2021/04/27 07:29:40;;;;;;;13.48;8.28;;;;;;;15.97;68.91;99686.31;1809051;78;21593;-69
2021/04/27 07:32:10;;;;;;;14.28;7.75;;;;;;;15.96;68.66;99684.16;1787694;78;21105;-71
2021/04/27 07:34:39;;;;;;;16.60;8.68;;;;;;;15.97;68.45;99687.13;1807326;78;21129;-71
2021/04/27 07:37:07;;;;;;;15.83;8.25;;;;;;;16.07;68.05;99684.05;1794346;78;21126;-73
2021/04/27 07:39:34;;;;;;;12.43;7.58;;;;;;;16.09;67.71;99679.34;1810188;78;21200;-73
2021/04/27 07:42:02;;;;;;;14.98;8.50;;;;;;;16.09;67.53;99688.72;1791597;78;21188;-75
2021/04/27 07:44:29;;;;;;;13.95;7.95;;;;;;;16.09;67.37;99688.72;1813688;78;21131;-70
2021/04/27 07:46:57;;;;;;;11.95;7.45;;;;;;;16.08;67.25;99691.89;1816529;78;21134;-71
2021/04/27 07:49:24;;;;;;;13.10;7.85;;;;;;;16.09;67.08;99696.23;1823358;78;21130;-71
2021/04/27 07:51:53;;;;;;;11.33;6.72;;;;;;;16.09;66.97;99690.05;1792849;79;21186;-70
2021/04/27 07:54:21;;;;;;;13.62;7.67;;;;;;;16.07;66.91;99680.03;1791815;79;21581;-71
2021/04/27 07:56:48;;;;;;;12.58;7.20;;;;;;;16.10;66.83;99687.67;1792685;80;21138;-71
2021/04/27 07:59:15;;;;;;;10.80;6.62;;;;;;;16.11;66.71;99679.95;1806652;78;21174;-70
2021/04/27 08:01:43;;;;;;;11.78;7.17;;;;;;;16.17;66.67;99680.95;1804927;78;21544;-71
2021/04/27 08:04:10;;;;;;;13.28;6.85;;;;;;;16.29;66.32;99682.82;1805008;78;21192;-71
2021/04/27 08:06:38;;;;;;;13.72;7.60;;;;;;;16.30;66.24;99681.80;1794733;79;22054;-71
2021/04/27 08:09:07;;;;;;;11.48;6.78;;;;;;;16.31;66.37;99678.59;1784136;79;21185;-72
2021/04/27 08:11:36;;;;;;;11.70;6.80;;;;;;;16.31;66.45;99674.58;1792620;80;21448;-70
2021/04/27 08:14:04;;;;;;;11.33;6.58;;;;;;;16.33;66.50;99674.38;1791537;79;21584;-70
2021/04/27 08:16:31;;;;;;;10.45;6.08;;;;;;;16.34;66.42;99676.02;1786779;78;21199;-69
2021/04/27 08:18:59;;;;;;;12.18;6.42;;;;;;;16.34;66.44;99670.65;1790819;78;21153;-71
2021/04/27 08:21:29;;;;;;;10.00;6.00;;;;;;;16.35;66.36;99673.13;1758391;80;21178;-70
2021/04/27 08:23:56;;;;;;;10.45;6.22;;;;;;;16.36;66.40;99672.61;1776151;79;21143;-69
2021/04/27 08:26:26;;;;;;;9.20;5.80;;;;;;;16.36;66.35;99664.56;1771854;79;21184;-68
2021/04/27 08:28:54;;;;;;;10.60;5.78;;;;;;;16.44;66.34;99673.23;1784073;79;21356;-67
2021/04/27 08:31:24;;;;;;;9.98;5.83;;;;;;;16.55;66.03;99673.09;1801747;79;21174;-67
2021/04/27 08:33:52;;;;;;;8.05;5.35;;;;;;;16.56;66.01;99665.89;1781610;79;21654;-68
2021/04/27 08:36:21;;;;;;;10.63;6.40;;;;;;;16.55;65.97;99662.89;1782087;79;21149;-68
2021/04/27 08:38:48;;;;;;;10.10;6.08;;;;;;;16.53;65.91;99660.41;1779980;79;21531;-68
2021/04/27 08:41:15;;;;;;;7.33;5.33;;;;;;;16.54;65.74;99661.26;1795436;79;21371;-67
2021/04/27 08:43:43;;;;;;;11.40;5.78;;;;;;;16.54;65.64;99662.08;1790176;79;21181;-69
2021/04/27 08:46:10;;;;;;;8.70;5.60;;;;;;;16.55;65.54;99667.73;1785055;79;21130;-68
2021/04/27 08:48:38;;;;;;;9.58;5.72;;;;;;;16.56;65.43;99654.64;1779998;79;21163;-68
2021/04/27 08:51:06;;;;;;;7.65;5.50;;;;;;;16.59;65.32;99661.44;1785043;77;21216;-68
2021/04/27 08:53:35;;;;;;;7.58;5.10;;;;;;;16.60;65.19;99657.21;1797049;77;21364;-70
2021/04/27 08:56:04;;;;;;;8.63;5.70;;;;;;;16.61;65.19;99660.22;1800637;79;21228;-66
2021/04/27 08:58:31;;;;;;;8.80;5.35;;;;;;;16.62;65.12;99669.89;1788218;79;21134;-68
2021/04/27 09:01:00;;;;;;;8.40;5.50;;;;;;;16.64;65.03;99665.67;1785916;79;21182;-68
2021/04/27 09:03:42;;;;;;;6.65;4.40;;;;;;;16.71;65.01;99664.62;1798593;79;21142;-66
2021/04/27 09:06:19;;;;;;;7.50;4.83;;;;;;;16.83;64.81;99659.98;1782122;79;21356;-68
2021/04/27 09:08:47;;;;;;;7.58;5.53;;;;;;;16.83;64.74;99656.78;1791441;79;21467;-69
2021/04/27 09:11:38;;;;;;;10.10;4.95;;;;;;;16.83;64.75;99645.23;1789182;79;21122;-69
2021/04/27 09:14:19;;;;;;;9.55;4.78;;;;;;;16.86;64.70;99644.78;1782683;79;21185;-70
2021/04/27 09:16:58;;;;;;;7.97;4.83;;;;;;;16.89;64.48;99638.48;1789639;79;21621;-68
2021/04/27 09:19:40;;;;;;;7.05;4.08;;;;;;;16.93;64.36;99652.30;1799714;78;21319;-69
2021/04/27 09:22:26;;;;;;;7.67;4.62;;;;;;;16.96;64.20;99649.21;1801128;78;21666;-70
2021/04/27 09:25:02;;;;;;;8.25;5.10;;;;;;;17.00;64.14;99646.41;1811313;78;21146;-69
2021/04/27 09:27:34;;;;;;;7.42;4.80;;;;;;;17.05;64.01;99649.25;1787972;79;21138;-69
2021/04/27 09:30:22;;;;;;;6.85;4.53;;;;;;;17.08;64.00;99647.50;1796952;79;21592;-68
2021/04/27 09:33:07;;;;;;;7.05;4.62;;;;;;;17.15;63.95;99645.30;1783201;79;21362;-68
2021/04/27 09:35:46;;;;;;;5.67;3.77;;;;;;;17.18;63.92;99650.25;1786707;79;21169;-67
2021/04/27 09:38:24;;;;;;;5.30;3.90;;;;;;;17.20;63.94;99654.89;1772781;80;21578;-67
2021/04/27 09:40:57;;;;;;;5.53;3.80;;;;;;;17.20;63.99;99650.34;1795329;79;21170;-67
2021/04/27 09:43:36;;;;;;;6.17;4.10;;;;;;;17.30;63.73;99655.25;1778336;79;21195;-69
2021/04/27 09:46:15;;;;;;;5.85;4.15;;;;;;;17.41;63.42;99653.23;1774029;79;21407;-68
2021/04/27 09:48:49;;;;;;;10.93;4.55;;;;;;;17.41;63.36;99647.86;1767823;80;21218;-68
2021/04/27 09:51:27;;;;;;;5.25;3.77;;;;;;;17.42;63.15;99654.05;1771287;79;21175;-70
2021/04/27 09:54:02;;;;;;;6.47;3.47;;;;;;;17.42;62.86;99646.84;1775948;79;21624;-68
2021/04/27 09:56:48;;;;;;;5.83;4.20;;;;;;;17.45;62.65;99644.23;1788153;79;21136;-67
2021/04/27 10:02:09;;;;;;;4.90;3.45;;;;;;;17.56;62.42;99641.36;1836792;77;28402;-67
2021/04/27 10:04:40;;;;;;;5.33;3.52;;;;;;;17.54;62.21;99644.78;1825578;77;21103;-68
2021/04/27 10:07:08;;;;;;;4.85;3.27;;;;;;;17.60;62.06;99637.23;1839260;77;21376;-67
2021/04/27 10:09:36;;;;;;;4.78;3.50;;;;;;;17.66;61.95;99643.07;1817556;78;21130;-68
2021/04/27 10:12:07;;;;;;;4.85;3.72;;;;;;;17.72;61.79;99639.51;1823333;78;21069;-67
2021/04/27 10:14:35;;;;;;;4.65;3.35;;;;;;;17.79;61.90;99635.42;1822570;77;21385;-70
2021/04/27 10:17:04;;;;;;;5.67;3.92;;;;;;;17.84;61.66;99637.79;1786322;79;21134;-71
2021/04/27 10:19:33;;;;;;;4.20;3.40;;;;;;;17.92;61.47;99637.23;1818458;77;21379;-70
2021/04/27 10:22:02;;;;;;;4.62;3.05;;;;;;;17.96;61.26;99643.27;1811300;77;21571;-67
2021/04/27 10:24:30;;;;;;;5.25;3.37;;;;;;;18.01;61.07;99639.95;1806898;78;21151;-67
2021/04/27 10:26:58;;;;;;;4.47;3.45;;;;;;;18.05;61.13;99642.50;1851494;77;21620;-69
2021/04/27 10:29:26;;;;;;;4.25;3.58;;;;;;;18.08;60.92;99638.86;1844688;77;21135;-65
2021/04/27 10:32:22;;;;;;;3.30;2.80;;;;;;;18.12;60.62;99633.86;1832100;77;21254;-67
2021/04/27 10:35:05;;;;;;;4.85;3.45;;;;;;;18.14;60.49;99637.66;1829791;78;21195;-66
2021/04/27 10:38:09;;;;;;;3.75;3.02;;;;;;;18.13;60.54;99639.53;1836343;77;21626;-67
2021/04/27 10:40:53;;;;;;;4.67;2.85;;;;;;;18.13;60.39;99643.56;1823133;77;21119;-66
2021/04/27 10:43:29;;;;;;;4.78;3.33;;;;;;;18.12;60.15;99640.59;1814539;78;21163;-69
2021/04/27 10:46:02;;;;;;;4.28;2.85;;;;;;;18.13;59.96;99640.88;1814215;77;21339;-67
2021/04/27 10:48:41;;;;;;;3.72;2.95;;;;;;;18.16;60.13;99637.75;1821809;77;21139;-65
2021/04/27 10:51:28;;;;;;;3.65;2.70;;;;;;;18.19;60.35;99638.64;1795284;78;21175;-66
2021/04/27 10:54:20;;;;;;;4.03;2.90;;;;;;;18.25;60.25;99638.28;1794535;78;21206;-68
2021/04/27 10:57:05;;;;;;;4.30;2.95;;;;;;;18.33;60.82;99634.48;1809554;78;21606;-69
2021/04/27 11:00:02;;;;;;;5.20;3.33;;;;;;;18.39;61.46;99629.59;1784012;78;21383;-68
2021/04/27 11:02:34;;;;;;;3.52;2.70;;;;;;;18.46;60.71;99631.14;1810429;77;21131;-66
2021/04/27 11:05:21;;;;;;;2.95;2.40;;;;;;;18.53;60.17;99625.72;1825411;78;21147;-70
2021/04/27 11:08:05;;;;;;;3.92;2.77;;;;;;;18.56;60.10;99618.55;1819924;78;21198;-66
2021/04/27 11:10:38;;;;;;;3.37;2.60;;;;;;;18.62;60.03;99615.46;1803987;78;21098;-68
2021/04/27 11:13:08;;;;;;;3.27;2.40;;;;;;;18.64;59.68;99620.13;1829882;78;21563;-70
2021/04/27 11:15:38;;;;;;;3.87;2.52;;;;;;;18.64;59.42;99612.87;1819273;78;21155;-68
2021/04/27 11:18:17;;;;;;;3.92;2.50;;;;;;;18.64;59.25;99617.44;1808525;78;21189;-66
2021/04/27 11:21:12;;;;;;;3.52;2.55;;;;;;;18.63;59.04;99611.21;1820259;78;21338;-67
2021/04/27 11:23:56;;;;;;;3.20;2.27;;;;;;;18.62;58.78;99612.27;1820286;78;21139;-68
2021/04/27 11:26:37;;;;;;;3.53;3.13;;;;;;;18.63;58.44;99601.80;1807605;78;22263;-65
2021/04/27 11:29:21;;;;;;;4.37;2.72;;;;;;;18.63;58.42;99595.06;1808968;78;21175;-66
2021/04/27 11:32:12;;;;;;;3.17;2.80;;;;;;;18.67;58.52;99599.48;1824899;78;21166;-67
2021/04/27 11:35:17;;;;;;;3.62;2.52;;;;;;;18.70;58.25;99604.92;1835484;78;21142;-67
2021/04/27 11:37:51;;;;;;;3.95;2.65;;;;;;;18.72;58.15;99602.33;1812711;78;21140;-66
2021/04/27 11:40:29;;;;;;;3.02;2.55;;;;;;;18.73;58.13;99595.08;1815037;78;21421;-66
2021/04/27 11:43:09;;;;;;;2.30;2.10;;;;;;;18.73;58.00;99591.03;1842598;77;21178;-66
2021/04/27 11:45:48;;;;;;;3.30;2.70;;;;;;;18.75;57.86;99588.94;1809426;78;21146;-66
2021/04/27 11:48:19;;;;;;;;;;;;;;;18.75;57.72;99590.28;1840379;77;21135;-67
2021/04/27 11:50:47;;;;;;;2.12;1.77;;;;;;;18.77;57.59;99587.66;1826790;77;20314;-67
2021/04/27 11:53:21;;;;;;;3.00;2.30;;;;;;;18.72;57.74;99595.60;1832246;77;22090;-66
2021/04/27 11:55:57;;;;;;;3.55;2.12;;;;;;;18.74;57.67;99591.34;1814393;78;21551;-67
2021/04/27 11:58:35;;;;;;;2.55;2.10;;;;;;;18.77;57.67;99596.27;1820067;77;21174;-66
2021/04/27 12:01:03;;;;;;;2.60;2.00;;;;;;;18.76;57.65;99591.41;1810666;77;21169;-69
2021/04/27 12:03:43;;;;;;;2.83;1.98;;;;;;;18.76;57.68;99594.63;1807388;78;21123;-67
2021/04/27 12:06:16;;;;;;;2.58;2.20;;;;;;;18.75;57.63;99591.63;1816161;78;21371;-68
2021/04/27 12:08:55;;;;;;;3.02;2.27;;;;;;;18.72;57.65;99590.22;1815990;78;21629;-68
2021/04/27 12:11:30;;;;;;;3.00;1.90;;;;;;;18.70;57.67;99603.58;1834223;77;21188;-67
2021/04/27 12:14:08;;;;;;;3.33;2.17;;;;;;;18.67;57.64;99603.52;1834814;77;21131;-68
2021/04/27 12:16:39;;;;;;;2.95;2.30;;;;;;;18.65;57.57;99607.77;1835960;77;21572;-67
2021/04/27 12:19:19;;;;;;;2.60;1.85;;;;;;;18.62;57.43;99619.50;1832327;77;21357;-68
2021/04/27 12:22:04;;;;;;;2.67;2.15;;;;;;;18.61;57.40;99616.52;1843519;77;21135;-68
2021/04/27 12:24:36;;;;;;;2.72;2.00;;;;;;;18.60;57.25;99617.56;1812736;77;21190;-68
2021/04/27 12:27:47;;;;;;;2.55;2.00;;;;;;;18.65;56.93;99605.61;1833233;76;22523;-69
2021/04/27 12:30:19;;;;;;;2.62;2.25;;;;;;;18.62;56.86;99602.86;1795710;78;21609;-68
2021/04/27 12:32:49;;;;;;;3.45;2.45;;;;;;;18.64;56.90;99600.77;1797520;79;22777;-68
2021/04/27 12:35:22;;;;;;;1.98;1.80;;;;;;;18.65;56.89;99597.54;1761460;77;21150;-67
2021/04/27 12:37:59;;;;;;;2.45;1.95;;;;;;;18.65;56.86;99593.50;1794404;78;21170;-69
2021/04/27 12:40:31;;;;;;;2.37;1.70;;;;;;;18.62;56.89;99597.48;1787853;77;21177;-67
2021/04/27 12:43:11;;;;;;;2.08;1.80;;;;;;;18.58;56.82;99596.78;1794867;79;21198;-68
2021/04/27 12:46:00;;;;;;;4.00;2.12;;;;;;;18.54;56.91;99593.72;1784172;77;21697;-68
2021/04/27 12:48:31;;;;;;;2.60;1.92;;;;;;;18.51;56.94;99594.18;1772589;79;21200;-68
2021/04/27 12:51:04;;;;;;;;;;;;;;;18.46;56.98;99593.48;1747909;79;21589;-68
2021/04/27 12:53:43;;;;;;;2.30;1.90;;;;;;;18.43;57.00;99599.86;1801030;79;20228;-67
2021/04/27 12:56:16;;;;;;;2.15;1.90;;;;;;;18.35;57.03;99600.98;1778213;79;21173;-68
2021/04/27 12:58:46;;;;;;;2.65;1.92;;;;;;;18.35;56.98;99595.59;1796780;78;21538;-67
2021/04/27 13:01:22;;;;;;;3.37;2.05;;;;;;;18.37;56.90;99592.66;1788806;78;21228;-67
2021/04/27 13:03:57;;;;;;;2.67;1.95;;;;;;;18.37;56.88;99592.66;1787332;79;21134;-68
2021/04/27 13:06:33;;;;;;;2.62;1.92;;;;;;;18.38;56.81;99588.94;1789488;77;21594;-68
2021/04/27 13:09:11;;;;;;;2.58;2.10;;;;;;;18.37;56.75;99589.47;1792121;78;21193;-67
2021/04/27 13:11:41;;;;;;;2.15;1.82;;;;;;;18.37;56.63;99584.59;1808484;79;21548;-69
2021/04/27 13:14:31;;;;;;;2.67;2.10;;;;;;;18.37;56.74;99585.94;1761975;79;21625;-67
2021/04/27 13:17:01;;;;;;;2.33;2.05;;;;;;;18.37;56.68;99589.47;1780342;78;21648;-69
2021/04/27 13:19:32;;;;;;;3.10;2.37;;;;;;;18.35;56.93;99581.30;1730981;81;21178;-68
2021/04/27 13:22:18;;;;;;;2.72;1.90;;;;;;;18.38;56.87;99584.91;1838801;77;22067;-68
2021/04/27 13:24:52;;;;;;;2.65;1.82;;;;;;;18.33;57.21;99582.90;1815249;77;21119;-68
2021/04/27 13:27:28;;;;;;;2.90;1.87;;;;;;;18.32;57.39;99588.48;1835613;77;22242;-68
2021/04/27 13:30:19;;;;;;;2.40;1.90;;;;;;;18.28;57.47;99582.73;1839577;76;22292;-68
2021/04/27 13:33:07;;;;;;;2.20;1.80;;;;;;;18.26;57.64;99584.30;1834627;77;21145;-69
2021/04/27 13:35:40;;;;;;;1.98;1.67;;;;;;;18.22;58.07;99594.38;1831125;77;21225;-68
2021/04/27 13:38:10;;;;;;;2.33;2.00;;;;;;;18.17;58.15;99591.52;1844978;76;21155;-68
2021/04/27 13:40:39;;;;;;;2.02;1.70;;;;;;;18.14;58.07;99593.30;1856512;76;21380;-69
2021/04/27 13:43:15;;;;;;;1.85;1.67;;;;;;;18.08;58.63;99585.62;1851344;77;21206;-68
2021/04/27 13:45:42;;;;;;;1.90;1.70;;;;;;;18.05;58.88;99592.77;1852184;77;22306;-68
2021/04/27 13:48:10;;;;;;;2.85;2.00;;;;;;;17.99;59.24;99602.53;1831611;77;21227;-68
2021/04/27 13:50:40;;;;;;;1.92;1.72;;;;;;;17.98;59.08;99609.47;1843001;77;21182;-68
2021/04/27 13:53:08;;;;;;;1.80;1.55;;;;;;;17.94;59.17;99609.61;1839972;76;22263;-66
2021/04/27 13:55:36;;;;;;;2.30;2.10;;;;;;;17.91;59.20;99607.38;1823406;77;21211;-67
2021/04/27 13:58:04;;;;;;;1.80;1.70;;;;;;;17.87;59.42;99602.43;1835784;77;21401;-68
2021/04/27 14:00:32;;;;;;;2.10;1.90;;;;;;;17.84;59.34;99605.55;1850095;77;21186;-67
2021/04/27 14:03:00;;;;;;;1.70;1.50;;;;;;;17.83;59.28;99617.32;1817213;78;21129;-68
2021/04/27 14:05:27;;;;;;;1.95;1.75;;;;;;;17.81;59.23;99609.16;1834704;76;21313;-67
2021/04/27 14:07:55;;;;;;;2.52;1.70;;;;;;;17.79;59.32;99604.52;1845013;77;21184;-67
2021/04/27 14:10:23;;;;;;;2.70;2.20;;;;;;;17.76;59.38;99604.98;1855519;77;21187;-67
2021/04/27 14:12:52;;;;;;;2.20;1.82;;;;;;;17.76;59.61;99605.79;1854103;76;21144;-68
2021/04/27 14:15:23;;;;;;;1.70;1.60;;;;;;;17.72;59.72;99595.19;1857285;77;21149;-67
2021/04/27 14:17:52;;;;;;;2.45;2.00;;;;;;;17.72;59.63;99603.24;1844948;77;22320;-67
2021/04/27 14:20:22;;;;;;;2.65;2.00;;;;;;;17.69;59.58;99598.29;1848910;77;21164;-66
2021/04/27 14:22:49;;;;;;;2.15;1.60;;;;;;;17.66;59.97;99602.77;1802614;77;21107;-67
2021/04/27 14:25:17;;;;;;;2.33;1.82;;;;;;;17.63;59.87;99605.88;1808848;77;21558;-67
2021/04/27 14:27:45;;;;;;;2.30;1.70;;;;;;;17.59;59.74;99606.02;1817080;77;21137;-67
2021/04/27 14:30:16;;;;;;;2.02;1.75;;;;;;;17.55;59.74;99608.31;1804401;77;21354;-67
2021/04/27 14:32:48;;;;;;;2.80;1.60;;;;;;;17.52;59.66;99610.60;1807607;78;21146;-66
2021/04/27 14:35:18;;;;;;;2.02;1.70;;;;;;;17.48;59.59;99600.31;1807486;77;21181;-68
2021/04/27 14:37:46;;;;;;;2.40;1.70;;;;;;;17.45;59.52;99602.08;1811056;77;21237;-66
2021/04/27 14:40:17;;;;;;;2.08;1.50;;;;;;;17.41;59.60;99604.89;1819856;77;21210;-68
2021/04/27 14:42:45;;;;;;;2.10;1.67;;;;;;;17.38;59.54;99599.95;1801107;78;21356;-68
2021/04/27 14:45:14;;;;;;;1.82;1.62;;;;;;;17.36;59.53;99602.55;1747791;81;21216;-67
2021/04/27 14:47:43;;;;;;;2.02;1.82;;;;;;;17.33;59.58;99596.28;1812279;77;21157;-68
2021/04/27 14:50:12;;;;;;;2.10;1.87;;;;;;;17.29;59.62;99598.05;1810316;77;21161;-66
2021/04/27 14:52:40;;;;;;;2.75;1.60;;;;;;;17.27;59.61;99602.81;1807001;77;21154;-69
2021/04/27 14:55:11;;;;;;;1.90;1.70;;;;;;;17.25;59.56;99605.42;1806796;77;22164;-66
2021/04/27 14:57:38;;;;;;;2.27;1.57;;;;;;;17.22;59.70;99601.81;1799515;77;21573;-66
2021/04/27 15:00:08;;;;;;;2.17;1.82;;;;;;;17.20;59.78;99602.55;1817970;77;21209;-67
2021/04/27 15:02:36;;;;;;;2.27;1.65;;;;;;;17.17;59.84;99604.30;1818167;77;21597;-70
2021/04/27 15:05:08;;;;;;;2.27;1.80;;;;;;;17.15;59.91;99609.06;1810439;78;21605;-67
2021/04/27 15:07:35;;;;;;;1.65;1.50;;;;;;;17.12;59.93;99602.80;1813201;77;21185;-70
2021/04/27 15:10:05;;;;;;;2.33;1.37;;;;;;;17.06;60.08;99598.58;1808227;78;21132;-67
2021/04/27 15:12:33;;;;;;;2.12;1.70;;;;;;;17.06;60.04;99606.64;1751697;79;21180;-65
2021/04/27 15:15:01;;;;;;;1.87;1.70;;;;;;;17.05;60.12;99606.84;1802845;77;21818;-65
2021/04/27 15:17:28;;;;;;;1.50;1.40;;;;;;;17.03;60.07;99603.55;1813632;77;21154;-66
2021/04/27 15:19:59;;;;;;;2.10;1.90;;;;;;;17.02;60.11;99608.10;1806405;78;21390;-65
2021/04/27 15:22:26;;;;;;;2.00;1.40;;;;;;;17.01;60.09;99602.94;1808862;77;21204;-65
2021/04/27 15:24:54;;;;;;;1.52;1.42;;;;;;;16.99;60.09;99601.80;1790676;79;21582;-63
2021/04/27 15:27:21;;;;;;;2.30;1.50;;;;;;;16.99;60.16;99603.67;1802839;79;21229;-65
2021/04/27 15:29:49;;;;;;;1.82;1.70;;;;;;;16.97;60.06;99599.86;1797962;79;21401;-64
2021/04/27 15:32:16;;;;;;;1.57;1.40;;;;;;;16.96;60.09;99598.23;1793303;79;21639;-64
2021/04/27 15:34:44;;;;;;;1.57;1.47;;;;;;;16.94;60.15;99593.59;1792338;79;21183;-64
2021/04/27 15:37:11;;;;;;;1.60;1.47;;;;;;;16.93;60.05;99590.59;1766719;79;21126;-64
2021/04/27 15:39:39;;;;;;;1.90;1.60;;;;;;;16.92;60.04;99596.16;1749820;81;21142;-64
2021/04/27 15:42:06;;;;;;;1.70;1.60;;;;;;;16.89;59.98;99594.73;1797765;79;21610;-64
2021/04/27 15:44:34;;;;;;;2.40;1.55;;;;;;;16.87;59.97;99602.18;1791004;79;21361;-66
2021/04/27 15:47:03;;;;;;;1.52;1.30;;;;;;;16.85;59.93;99597.55;1777930;79;21164;-65
2021/04/27 15:49:31;;;;;;;2.67;1.67;;;;;;;16.83;60.03;99599.63;1778163;79;21436;-68
2021/04/27 15:51:59;;;;;;;1.80;1.40;;;;;;;16.81;60.09;99599.80;1796007;79;21175;-69
2021/04/27 15:54:27;;;;;;;2.05;1.62;;;;;;;16.79;60.08;99604.55;1795282;79;21163;-69
2021/04/27 15:56:54;;;;;;;1.65;1.40;;;;;;;16.77;60.03;99599.92;1799680;79;21159;-68
2021/04/27 15:59:22;;;;;;;2.08;1.60;;;;;;;16.75;59.97;99602.52;1802985;79;21296;-68
2021/04/27 16:01:50;;;;;;;1.45;1.30;;;;;;;16.72;60.09;99598.38;1778656;79;21656;-68
2021/04/27 16:04:18;;;;;;;2.17;1.77;;;;;;;16.70;60.12;99605.81;1769331;80;21120;-68
2021/04/27 16:06:47;;;;;;;1.85;1.65;;;;;;;16.66;60.03;99598.70;1765412;80;21155;-65
2021/04/27 16:09:17;;;;;;;2.05;1.82;;;;;;;16.64;60.10;99612.84;1781061;80;21234;-64
2021/04/27 16:11:46;;;;;;;1.98;1.50;;;;;;;16.61;60.12;99617.31;1768892;80;21254;-69
2021/04/27 16:14:15;;;;;;;1.75;1.30;;;;;;;16.59;60.18;99627.42;1764578;80;21222;-65
2021/04/27 16:16:42;;;;;;;1.72;1.40;;;;;;;16.59;60.20;99626.58;1770944;78;21182;-64
2021/04/27 16:19:10;;;;;;;2.83;1.42;;;;;;;16.56;60.29;99606.38;1777707;80;21163;-66
2021/04/27 16:21:37;;;;;;;1.77;1.50;;;;;;;16.56;60.30;99608.24;1785069;77;21387;-64
2021/04/27 16:24:06;;;;;;;1.47;1.37;;;;;;;16.54;60.22;99609.78;1827407;77;21626;-64
2021/04/27 16:26:33;;;;;;;2.05;1.50;;;;;;;16.54;60.15;99611.66;1812739;78;21179;-66
2021/04/27 16:29:01;;;;;;;1.70;1.52;;;;;;;16.51;60.08;99614.22;1795065;78;21113;-64
2021/04/27 16:31:29;;;;;;;1.55;1.40;;;;;;;16.49;60.02;99617.63;1832439;77;21123;-65
2021/04/27 16:33:57;;;;;;;1.40;1.30;;;;;;;16.46;60.00;99614.86;1823224;77;21343;-67
2021/04/27 16:36:25;;;;;;;1.65;1.50;;;;;;;16.44;59.91;99620.13;1835966;76;21225;-66
2021/04/27 16:38:53;;;;;;;1.55;1.45;;;;;;;16.42;59.87;99618.99;1833025;77;21520;-65
2021/04/27 16:41:21;;;;;;;2.08;1.40;;;;;;;16.40;59.83;99626.92;1830953;77;21095;-65
2021/04/27 16:43:50;;;;;;;2.12;1.67;;;;;;;16.37;59.76;99626.83;1845906;76;21154;-66
2021/04/27 16:46:17;;;;;;;1.60;1.50;;;;;;;16.36;59.63;99631.05;1843740;76;21445;-64
2021/04/27 16:48:46;;;;;;;1.50;1.40;;;;;;;16.33;59.54;99633.64;1831651;76;21191;-63
2021/04/27 16:51:14;;;;;;;1.70;1.30;;;;;;;16.31;59.47;99637.87;1836166;77;21150;-65
2021/04/27 16:53:42;;;;;;;2.02;1.70;;;;;;;16.30;59.55;99632.70;1842827;76;21139;-64
2021/04/27 16:56:10;;;;;;;2.02;1.60;;;;;;;16.27;59.48;99644.67;1828490;77;21136;-64
2021/04/27 16:58:39;;;;;;;1.65;1.42;;;;;;;16.26;59.39;99646.22;1844173;77;23506;-64
2021/04/27 17:01:07;;;;;;;1.65;1.45;;;;;;;16.23;59.30;99650.67;1834282;77;21203;-65
2021/04/27 17:03:37;;;;;;;1.55;1.45;;;;;;;16.20;59.27;99644.38;1805465;77;21131;-63
2021/04/27 17:06:06;;;;;;;1.67;1.57;;;;;;;16.18;59.33;99648.59;1777387;78;21119;-64
2021/04/27 17:08:41;;;;;;;2.33;1.60;;;;;;;16.16;59.26;99653.34;1793660;79;21126;-66
2021/04/27 17:11:08;;;;;;;1.90;1.57;;;;;;;16.13;59.26;99652.43;1805060;78;22273;-66
2021/04/27 17:13:37;;;;;;;3.02;1.60;;;;;;;16.10;59.21;99649.63;1809381;78;21165;-65
2021/04/27 17:16:04;;;;;;;2.08;1.60;;;;;;;16.08;59.18;99657.58;1810837;78;21149;-64
2021/04/27 17:18:32;;;;;;;1.30;1.20;;;;;;;16.07;59.11;99659.44;1817194;78;21138;-64
2021/04/27 17:20:59;;;;;;;1.87;1.47;;;;;;;16.04;59.07;99659.84;1787430;78;21145;-66
2021/04/27 17:23:27;;;;;;;1.50;1.40;;;;;;;16.02;59.04;99656.54;1796950;77;21558;-66
2021/04/27 17:25:55;;;;;;;1.65;1.37;;;;;;;16.00;58.98;99661.80;1777220;78;21624;-65
2021/04/27 17:28:22;;;;;;;1.95;1.75;;;;;;;15.98;58.94;99659.33;1802653;78;21159;-65
2021/04/27 17:30:50;;;;;;;1.75;1.37;;;;;;;15.96;58.97;99664.06;1799777;78;21122;-65
2021/04/27 17:33:17;;;;;;;1.57;1.32;;;;;;;15.93;58.92;99669.82;1796664;78;21118;-65
2021/04/27 17:35:45;;;;;;;1.65;1.47;;;;;;;15.90;58.88;99666.23;1812138;77;21381;-66
2021/04/27 17:38:14;;;;;;;2.85;1.87;;;;;;;15.89;58.89;99666.72;1799313;78;21604;-65
2021/04/27 17:40:42;;;;;;;1.92;1.72;;;;;;;15.86;58.86;99666.33;1811399;78;21571;-65
2021/04/27 17:43:10;;;;;;;1.92;1.57;;;;;;;15.84;58.84;99670.55;1807273;76;21113;-66
2021/04/27 17:45:38;;;;;;;3.15;1.85;;;;;;;15.82;58.83;99674.44;1808138;78;21143;-66
2021/04/27 17:48:06;;;;;;;2.00;1.80;;;;;;;15.80;58.79;99683.20;1812991;78;21224;-67
2021/04/27 17:50:35;;;;;;;2.55;1.50;;;;;;;15.77;58.78;99680.94;1801740;78;21733;-64
2021/04/27 17:53:04;;;;;;;2.90;1.72;;;;;;;15.75;58.76;99681.14;1809999;78;21147;-64
2021/04/27 17:55:33;;;;;;;2.58;1.55;;;;;;;15.72;58.74;99690.38;1804840;78;21194;-65
2021/04/27 17:58:01;;;;;;;2.08;1.47;;;;;;;15.71;58.76;99693.26;1816592;77;21114;-64
2021/04/27 18:00:28;;;;;;;3.87;2.10;;;;;;;15.69;58.79;99692.64;1800939;78;21382;-63
2021/04/27 18:02:57;;;;;;;1.92;1.72;;;;;;;15.66;58.86;99697.05;1778010;78;21586;-64
2021/04/27 18:05:27;;;;;;;3.15;1.65;;;;;;;15.64;58.82;99703.94;1804293;77;21150;-64
2021/04/27 18:07:55;;;;;;;2.15;1.87;;;;;;;15.62;58.82;99704.66;1820654;77;21186;-63
2021/04/27 18:10:24;;;;;;;1.72;1.62;;;;;;;15.60;58.84;99708.05;1805357;77;21145;-65
2021/04/27 18:12:52;;;;;;;2.05;1.82;;;;;;;15.58;58.81;99711.44;1790889;77;21331;-64